sensor_id;sensor_type;location;lat;lon;timestamp;temperature;humidity
47382;DHT22;33128;51.580;5.170;2022-12-18T00:02:18;7.20;99.90
47382;DHT22;33128;51.580;5.170;2022-12-18T00:04:44;7.10;99.90
47382;DHT22;33128;51.580;5.170;2022-12-18T00:07:10;7.00;99.90
47382;DHT22;33128;51.580;5.170;2022-12-18T00:09:35;7.10;99.90
47382;DHT22;33128;51.580;5.170;2022-12-18T00:12:01;7.00;99.90
47382;DHT22;33128;51.580;5.170;2022-12-18T00:14:27;7.10;99.90
47382;DHT22;33128;51.580;5.170;2022-12-18T00:16:52;7.10;99.90
47382;DHT22;33128;51.580;5.170;2022-12-18T00:19:18;7.10;99.90
47382;DHT22;33128;51.580;5.170;2022-12-18T00:21:44;7.00;99.90
47382;DHT22;33128;51.580;5.170;2022-12-18T00:24:10;7.00;99.90
47382;DHT22;33128;51.580;5.170;2022-12-18T00:26:38;7.00;99.90
47382;DHT22;33128;51.580;5.170;2022-12-18T00:29:07;7.00;99.90
47382;DHT22;33128;51.580;5.170;2022-12-18T00:31:33;6.90;99.90
47382;DHT22;33128;51.580;5.170;2022-12-18T00:33:59;6.90;99.90
47382;DHT22;33128;51.580;5.170;2022-12-18T00:36:30;6.90;99.90
47382;DHT22;33128;51.580;5.170;2022-12-18T00:38:57;6.80;99.90
47382;DHT22;33128;51.580;5.170;2022-12-18T00:41:27;6.80;99.90
47382;DHT22;33128;51.580;5.170;2022-12-18T00:44:13;6.70;99.90
47382;DHT22;33128;51.580;5.170;2022-12-18T00:46:43;6.70;99.90
47382;DHT22;33128;51.580;5.170;2022-12-18T00:49:09;6.60;99.90
47382;DHT22;33128;51.580;5.170;2022-12-18T00:51:34;6.70;99.90
47382;DHT22;33128;51.580;5.170;2022-12-18T00:54:00;6.80;99.90
47382;DHT22;33128;51.580;5.170;2022-12-18T00:56:25;6.70;99.90
47382;DHT22;33128;51.580;5.170;2022-12-18T00:58:51;6.70;99.90
47382;DHT22;33128;51.580;5.170;2022-12-18T01:01:17;6.70;99.90
47382;DHT22;33128;51.580;5.170;2022-12-18T01:03:43;6.70;99.90
47382;DHT22;33128;51.580;5.170;2022-12-18T01:06:12;6.70;99.90
47382;DHT22;33128;51.580;5.170;2022-12-18T01:08:38;6.70;99.90
47382;DHT22;33128;51.580;5.170;2022-12-18T01:11:23;6.60;99.90
47382;DHT22;33128;51.580;5.170;2022-12-18T01:13:52;6.50;99.90
47382;DHT22;33128;51.580;5.170;2022-12-18T01:16:18;6.40;99.90
47382;DHT22;33128;51.580;5.170;2022-12-18T01:18:45;6.40;99.90
47382;DHT22;33128;51.580;5.170;2022-12-18T01:21:15;6.50;99.90
47382;DHT22;33128;51.580;5.170;2022-12-18T01:23:44;6.40;99.90
47382;DHT22;33128;51.580;5.170;2022-12-18T01:26:15;6.40;99.90
47382;DHT22;33128;51.580;5.170;2022-12-18T01:28:42;6.40;99.90
47382;DHT22;33128;51.580;5.170;2022-12-18T01:31:14;6.40;99.80
47382;DHT22;33128;51.580;5.170;2022-12-18T01:33:46;6.50;99.90
47382;DHT22;33128;51.580;5.170;2022-12-18T01:36:16;6.50;99.90
47382;DHT22;33128;51.580;5.170;2022-12-18T01:38:42;6.50;99.90
47382;DHT22;33128;51.580;5.170;2022-12-18T01:41:09;6.60;99.90
47382;DHT22;33128;51.580;5.170;2022-12-18T01:46:07;6.40;99.90
47382;DHT22;33128;51.580;5.170;2022-12-18T01:48:33;6.30;99.90
47382;DHT22;33128;51.580;5.170;2022-12-18T01:50:59;6.30;99.90
47382;DHT22;33128;51.580;5.170;2022-12-18T01:53:26;6.20;99.90
47382;DHT22;33128;51.580;5.170;2022-12-18T01:55:53;6.30;99.90
47382;DHT22;33128;51.580;5.170;2022-12-18T01:58:27;6.30;99.90
47382;DHT22;33128;51.580;5.170;2022-12-18T02:00:55;6.20;99.90
47382;DHT22;33128;51.580;5.170;2022-12-18T02:03:21;6.00;99.90
47382;DHT22;33128;51.580;5.170;2022-12-18T02:11:10;5.90;99.90
47382;DHT22;33128;51.580;5.170;2022-12-18T02:13:41;6.00;99.90
47382;DHT22;33128;51.580;5.170;2022-12-18T02:16:40;6.00;99.90
47382;DHT22;33128;51.580;5.170;2022-12-18T02:22:03;6.10;99.40
47382;DHT22;33128;51.580;5.170;2022-12-18T02:24:44;6.10;98.70
47382;DHT22;33128;51.580;5.170;2022-12-18T02:27:12;6.10;99.90
47382;DHT22;33128;51.580;5.170;2022-12-18T02:29:43;6.10;99.90
47382;DHT22;33128;51.580;5.170;2022-12-18T02:32:14;6.10;99.00
47382;DHT22;33128;51.580;5.170;2022-12-18T02:34:43;6.10;99.90
47382;DHT22;33128;51.580;5.170;2022-12-18T02:37:12;6.10;99.90
47382;DHT22;33128;51.580;5.170;2022-12-18T02:39:42;6.00;99.90
47382;DHT22;33128;51.580;5.170;2022-12-18T02:42:08;6.10;99.90
47382;DHT22;33128;51.580;5.170;2022-12-18T02:44:45;6.10;99.90
47382;DHT22;33128;51.580;5.170;2022-12-18T02:47:12;6.00;99.90
47382;DHT22;33128;51.580;5.170;2022-12-18T02:58:09;5.90;99.90
47382;DHT22;33128;51.580;5.170;2022-12-18T03:01:03;5.90;99.90
47382;DHT22;33128;51.580;5.170;2022-12-18T03:06:26;5.90;99.90
47382;DHT22;33128;51.580;5.170;2022-12-18T03:08:58;5.70;99.90
47382;DHT22;33128;51.580;5.170;2022-12-18T03:11:24;5.80;99.90
47382;DHT22;33128;51.580;5.170;2022-12-18T03:14:11;5.70;99.90
47382;DHT22;33128;51.580;5.170;2022-12-18T03:16:40;5.70;99.70
47382;DHT22;33128;51.580;5.170;2022-12-18T03:19:14;5.60;99.90
47382;DHT22;33128;51.580;5.170;2022-12-18T03:21:45;5.60;99.00
47382;DHT22;33128;51.580;5.170;2022-12-18T03:24:11;5.60;99.90
47382;DHT22;33128;51.580;5.170;2022-12-18T03:26:40;5.50;99.10
47382;DHT22;33128;51.580;5.170;2022-12-18T03:29:12;5.40;99.90
47382;DHT22;33128;51.580;5.170;2022-12-18T03:31:41;5.50;99.90
47382;DHT22;33128;51.580;5.170;2022-12-18T03:34:19;5.60;99.90
47382;DHT22;33128;51.580;5.170;2022-12-18T03:36:49;5.60;99.90
47382;DHT22;33128;51.580;5.170;2022-12-18T03:39:15;5.50;99.70
47382;DHT22;33128;51.580;5.170;2022-12-18T03:47:30;5.40;99.90
47382;DHT22;33128;51.580;5.170;2022-12-18T03:50:19;5.50;99.80
47382;DHT22;33128;51.580;5.170;2022-12-18T03:55:15;5.50;99.90
47382;DHT22;33128;51.580;5.170;2022-12-18T03:57:42;5.40;99.90
47382;DHT22;33128;51.580;5.170;2022-12-18T04:00:12;5.50;99.90
47382;DHT22;33128;51.580;5.170;2022-12-18T04:02:42;5.40;99.30
47382;DHT22;33128;51.580;5.170;2022-12-18T04:05:10;5.30;99.90
47382;DHT22;33128;51.580;5.170;2022-12-18T04:07:36;5.30;99.90
47382;DHT22;33128;51.580;5.170;2022-12-18T04:10:06;5.30;99.90
47382;DHT22;33128;51.580;5.170;2022-12-18T04:12:32;5.30;99.90
47382;DHT22;33128;51.580;5.170;2022-12-18T04:14:58;5.30;99.90
47382;DHT22;33128;51.580;5.170;2022-12-18T04:17:23;5.40;99.90
47382;DHT22;33128;51.580;5.170;2022-12-18T04:19:49;5.30;99.90
47382;DHT22;33128;51.580;5.170;2022-12-18T04:22:15;5.20;99.90
47382;DHT22;33128;51.580;5.170;2022-12-18T04:24:40;5.20;99.90
47382;DHT22;33128;51.580;5.170;2022-12-18T04:27:06;5.20;99.40
47382;DHT22;33128;51.580;5.170;2022-12-18T04:29:32;4.80;96.80
47382;DHT22;33128;51.580;5.170;2022-12-18T04:31:57;1.10;96.60
47382;DHT22;33128;51.580;5.170;2022-12-18T04:34:23;1.90;99.90
47382;DHT22;33128;51.580;5.170;2022-12-18T04:36:48;1.90;99.90
47382;DHT22;33128;51.580;5.170;2022-12-18T04:39:17;1.70;99.90
47382;DHT22;33128;51.580;5.170;2022-12-18T04:41:42;1.40;99.90
47382;DHT22;33128;51.580;5.170;2022-12-18T04:44:08;1.40;99.90
47382;DHT22;33128;51.580;5.170;2022-12-18T04:46:33;1.20;99.90
47382;DHT22;33128;51.580;5.170;2022-12-18T04:48:59;1.00;99.90
47382;DHT22;33128;51.580;5.170;2022-12-18T04:51:25;1.00;99.90
47382;DHT22;33128;51.580;5.170;2022-12-18T04:53:50;1.20;99.90
47382;DHT22;33128;51.580;5.170;2022-12-18T04:56:16;1.10;99.90
47382;DHT22;33128;51.580;5.170;2022-12-18T04:58:43;0.90;99.90
47382;DHT22;33128;51.580;5.170;2022-12-18T05:01:14;0.70;99.90
47382;DHT22;33128;51.580;5.170;2022-12-18T05:03:40;0.90;99.90
47382;DHT22;33128;51.580;5.170;2022-12-18T05:06:08;0.70;99.90
47382;DHT22;33128;51.580;5.170;2022-12-18T05:08:34;0.50;99.90
47382;DHT22;33128;51.580;5.170;2022-12-18T05:11:08;0.40;99.90
47382;DHT22;33128;51.580;5.170;2022-12-18T05:13:35;0.40;99.90
47382;DHT22;33128;51.580;5.170;2022-12-18T05:16:01;0.30;99.90
47382;DHT22;33128;51.580;5.170;2022-12-18T05:18:27;0.20;99.90
47382;DHT22;33128;51.580;5.170;2022-12-18T05:20:53;0.20;99.90
47382;DHT22;33128;51.580;5.170;2022-12-18T05:23:19;0.20;99.90
47382;DHT22;33128;51.580;5.170;2022-12-18T05:26:02;0.20;99.90
47382;DHT22;33128;51.580;5.170;2022-12-18T05:28:29;0.20;99.90
47382;DHT22;33128;51.580;5.170;2022-12-18T05:30:57;0.20;99.90
47382;DHT22;33128;51.580;5.170;2022-12-18T05:33:25;0.10;99.90
47382;DHT22;33128;51.580;5.170;2022-12-18T05:35:52;0.00;99.90
47382;DHT22;33128;51.580;5.170;2022-12-18T05:38:18;0.00;99.90
47382;DHT22;33128;51.580;5.170;2022-12-18T05:40:44;0.10;99.90
47382;DHT22;33128;51.580;5.170;2022-12-18T05:43:10;0.00;99.90
47382;DHT22;33128;51.580;5.170;2022-12-18T05:45:39;0.10;99.90
47382;DHT22;33128;51.580;5.170;2022-12-18T05:48:05;0.10;99.90
47382;DHT22;33128;51.580;5.170;2022-12-18T05:50:34;0.00;99.90
47382;DHT22;33128;51.580;5.170;2022-12-18T05:53:00;0.00;99.90
47382;DHT22;33128;51.580;5.170;2022-12-18T05:55:26;0.00;99.90
47382;DHT22;33128;51.580;5.170;2022-12-18T05:57:51;-0.10;99.90
47382;DHT22;33128;51.580;5.170;2022-12-18T06:00:17;-0.10;99.90
47382;DHT22;33128;51.580;5.170;2022-12-18T06:02:46;0.10;99.90
47382;DHT22;33128;51.580;5.170;2022-12-18T06:05:12;0.00;99.90
47382;DHT22;33128;51.580;5.170;2022-12-18T06:07:37;-0.10;99.90
47382;DHT22;33128;51.580;5.170;2022-12-18T06:10:03;-0.10;99.90
47382;DHT22;33128;51.580;5.170;2022-12-18T06:12:29;-0.20;99.90
47382;DHT22;33128;51.580;5.170;2022-12-18T06:14:54;0.00;99.90
47382;DHT22;33128;51.580;5.170;2022-12-18T06:17:20;-0.10;99.90
47382;DHT22;33128;51.580;5.170;2022-12-18T06:19:46;-0.20;99.90
47382;DHT22;33128;51.580;5.170;2022-12-18T06:22:11;-0.20;99.90
47382;DHT22;33128;51.580;5.170;2022-12-18T06:24:37;-0.30;99.90
47382;DHT22;33128;51.580;5.170;2022-12-18T06:27:02;-0.30;99.90
47382;DHT22;33128;51.580;5.170;2022-12-18T06:29:28;-0.40;99.90
47382;DHT22;33128;51.580;5.170;2022-12-18T06:31:54;-0.30;99.90
47382;DHT22;33128;51.580;5.170;2022-12-18T06:34:19;-0.20;99.90
47382;DHT22;33128;51.580;5.170;2022-12-18T06:36:45;-0.40;99.90
47382;DHT22;33128;51.580;5.170;2022-12-18T06:39:10;-0.40;99.90
47382;DHT22;33128;51.580;5.170;2022-12-18T06:41:36;-0.40;99.90
47382;DHT22;33128;51.580;5.170;2022-12-18T06:44:01;-0.40;99.90
47382;DHT22;33128;51.580;5.170;2022-12-18T06:46:27;-0.40;99.90
47382;DHT22;33128;51.580;5.170;2022-12-18T06:48:56;-0.50;99.90
47382;DHT22;33128;51.580;5.170;2022-12-18T06:51:23;-0.40;99.90
47382;DHT22;33128;51.580;5.170;2022-12-18T06:53:49;-0.40;99.90
47382;DHT22;33128;51.580;5.170;2022-12-18T06:56:15;-0.50;99.90
47382;DHT22;33128;51.580;5.170;2022-12-18T06:58:41;-0.40;99.90
47382;DHT22;33128;51.580;5.170;2022-12-18T07:01:09;-0.40;99.90
47382;DHT22;33128;51.580;5.170;2022-12-18T07:03:36;-0.50;99.90
47382;DHT22;33128;51.580;5.170;2022-12-18T07:06:02;-0.50;99.90
47382;DHT22;33128;51.580;5.170;2022-12-18T07:08:30;-0.60;99.90
47382;DHT22;33128;51.580;5.170;2022-12-18T07:10:56;-0.50;99.90
47382;DHT22;33128;51.580;5.170;2022-12-18T07:13:21;-0.50;99.90
47382;DHT22;33128;51.580;5.170;2022-12-18T07:15:47;-0.50;99.90
47382;DHT22;33128;51.580;5.170;2022-12-18T07:18:12;-0.50;99.90
47382;DHT22;33128;51.580;5.170;2022-12-18T07:20:38;-0.70;99.90
47382;DHT22;33128;51.580;5.170;2022-12-18T07:23:04;-0.60;99.90
47382;DHT22;33128;51.580;5.170;2022-12-18T07:25:36;-0.60;99.90
47382;DHT22;33128;51.580;5.170;2022-12-18T07:28:03;-0.50;99.90
47382;DHT22;33128;51.580;5.170;2022-12-18T07:30:28;-0.60;99.90
47382;DHT22;33128;51.580;5.170;2022-12-18T07:32:54;-0.50;99.90
47382;DHT22;33128;51.580;5.170;2022-12-18T07:35:19;-0.40;99.90
47382;DHT22;33128;51.580;5.170;2022-12-18T07:37:45;-0.50;99.90
47382;DHT22;33128;51.580;5.170;2022-12-18T07:40:11;-0.40;99.90
47382;DHT22;33128;51.580;5.170;2022-12-18T07:42:37;-0.50;99.90
47382;DHT22;33128;51.580;5.170;2022-12-18T07:45:03;-0.30;99.90
47382;DHT22;33128;51.580;5.170;2022-12-18T07:47:35;-0.40;99.90
47382;DHT22;33128;51.580;5.170;2022-12-18T07:50:07;-0.50;99.90
47382;DHT22;33128;51.580;5.170;2022-12-18T07:52:33;-0.40;99.90
47382;DHT22;33128;51.580;5.170;2022-12-18T07:54:59;-0.30;99.90
47382;DHT22;33128;51.580;5.170;2022-12-18T07:57:24;-0.20;99.90
47382;DHT22;33128;51.580;5.170;2022-12-18T07:59:50;0.70;99.90
47382;DHT22;33128;51.580;5.170;2022-12-18T08:02:15;1.40;99.60
47382;DHT22;33128;51.580;5.170;2022-12-18T08:04:41;1.80;98.50
47382;DHT22;33128;51.580;5.170;2022-12-18T08:07:09;2.10;98.20
47382;DHT22;33128;51.580;5.170;2022-12-18T08:09:35;2.30;97.70
47382;DHT22;33128;51.580;5.170;2022-12-18T08:12:00;2.40;97.50
47382;DHT22;33128;51.580;5.170;2022-12-18T08:14:26;2.60;97.20
47382;DHT22;33128;51.580;5.170;2022-12-18T08:16:51;2.70;97.40
47382;DHT22;33128;51.580;5.170;2022-12-18T08:19:17;2.70;97.00
47382;DHT22;33128;51.580;5.170;2022-12-18T08:21:43;2.90;97.10
47382;DHT22;33128;51.580;5.170;2022-12-18T08:24:09;2.90;96.70
47382;DHT22;33128;51.580;5.170;2022-12-18T08:26:35;3.00;96.70
47382;DHT22;33128;51.580;5.170;2022-12-18T08:29:01;3.10;96.80
47382;DHT22;33128;51.580;5.170;2022-12-18T08:31:28;3.10;96.50
47382;DHT22;33128;51.580;5.170;2022-12-18T08:33:54;3.10;96.10
47382;DHT22;33128;51.580;5.170;2022-12-18T08:36:21;3.10;96.20
47382;DHT22;33128;51.580;5.170;2022-12-18T08:38:47;3.20;96.30
47382;DHT22;33128;51.580;5.170;2022-12-18T08:41:15;3.30;96.10
47382;DHT22;33128;51.580;5.170;2022-12-18T08:43:41;3.30;95.60
47382;DHT22;33128;51.580;5.170;2022-12-18T08:46:27;3.30;96.00
47382;DHT22;33128;51.580;5.170;2022-12-18T08:48:56;3.40;96.10
47382;DHT22;33128;51.580;5.170;2022-12-18T08:51:21;3.40;95.70
47382;DHT22;33128;51.580;5.170;2022-12-18T08:53:47;3.40;96.00
47382;DHT22;33128;51.580;5.170;2022-12-18T08:56:14;3.50;95.80
47382;DHT22;33128;51.580;5.170;2022-12-18T08:58:40;3.50;95.80
47382;DHT22;33128;51.580;5.170;2022-12-18T09:01:11;3.60;95.90
47382;DHT22;33128;51.580;5.170;2022-12-18T09:03:38;3.60;95.60
47382;DHT22;33128;51.580;5.170;2022-12-18T09:06:04;3.60;95.70
47382;DHT22;33128;51.580;5.170;2022-12-18T09:08:30;3.70;95.50
47382;DHT22;33128;51.580;5.170;2022-12-18T09:10:55;3.70;95.60
47382;DHT22;33128;51.580;5.170;2022-12-18T09:13:21;3.80;95.40
47382;DHT22;33128;51.580;5.170;2022-12-18T09:15:50;3.90;95.70
47382;DHT22;33128;51.580;5.170;2022-12-18T09:18:18;3.90;95.60
47382;DHT22;33128;51.580;5.170;2022-12-18T09:20:44;4.00;95.30
47382;DHT22;33128;51.580;5.170;2022-12-18T09:23:09;4.00;95.30
47382;DHT22;33128;51.580;5.170;2022-12-18T09:25:36;4.00;95.10
47382;DHT22;33128;51.580;5.170;2022-12-18T09:28:04;4.00;95.40
47382;DHT22;33128;51.580;5.170;2022-12-18T09:30:29;4.00;95.20
47382;DHT22;33128;51.580;5.170;2022-12-18T09:32:59;4.10;95.10
47382;DHT22;33128;51.580;5.170;2022-12-18T09:35:25;4.10;95.00
47382;DHT22;33128;51.580;5.170;2022-12-18T09:37:50;4.00;95.10
47382;DHT22;33128;51.580;5.170;2022-12-18T09:40:18;4.00;94.80
47382;DHT22;33128;51.580;5.170;2022-12-18T09:42:52;4.00;95.30
47382;DHT22;33128;51.580;5.170;2022-12-18T09:45:19;4.10;95.30
47382;DHT22;33128;51.580;5.170;2022-12-18T09:47:46;4.20;95.10
47382;DHT22;33128;51.580;5.170;2022-12-18T09:50:27;4.30;95.20
47382;DHT22;33128;51.580;5.170;2022-12-18T09:52:57;4.40;95.20
47382;DHT22;33128;51.580;5.170;2022-12-18T09:55:40;4.40;95.10
47382;DHT22;33128;51.580;5.170;2022-12-18T09:58:22;4.40;94.90
47382;DHT22;33128;51.580;5.170;2022-12-18T10:00:52;4.40;94.90
47382;DHT22;33128;51.580;5.170;2022-12-18T10:03:17;4.50;95.00
47382;DHT22;33128;51.580;5.170;2022-12-18T10:08:46;4.50;94.90
47382;DHT22;33128;51.580;5.170;2022-12-18T10:14:17;4.60;94.60
47382;DHT22;33128;51.580;5.170;2022-12-18T10:17:21;4.80;96.10
47382;DHT22;33128;51.580;5.170;2022-12-18T10:27:47;5.70;95.10
47382;DHT22;33128;51.580;5.170;2022-12-18T10:30:16;5.80;95.20
47382;DHT22;33128;51.580;5.170;2022-12-18T10:32:42;5.80;95.00
47382;DHT22;33128;51.580;5.170;2022-12-18T10:35:15;5.90;95.00
47382;DHT22;33128;51.580;5.170;2022-12-18T10:38:00;6.00;94.90
47382;DHT22;33128;51.580;5.170;2022-12-18T10:40:26;6.00;94.40
47382;DHT22;33128;51.580;5.170;2022-12-18T10:43:12;6.10;94.90
47382;DHT22;33128;51.580;5.170;2022-12-18T10:45:38;6.10;94.20
47382;DHT22;33128;51.580;5.170;2022-12-18T10:48:04;6.20;94.70
47382;DHT22;33128;51.580;5.170;2022-12-18T10:50:36;6.30;94.90
47382;DHT22;33128;51.580;5.170;2022-12-18T10:53:03;6.30;94.50
47382;DHT22;33128;51.580;5.170;2022-12-18T10:55:35;6.40;94.70
47382;DHT22;33128;51.580;5.170;2022-12-18T10:58:21;6.40;94.60
47382;DHT22;33128;51.580;5.170;2022-12-18T11:03:45;6.60;94.30
47382;DHT22;33128;51.580;5.170;2022-12-18T11:06:18;6.70;95.10
47382;DHT22;33128;51.580;5.170;2022-12-18T11:11:24;6.80;94.50
47382;DHT22;33128;51.580;5.170;2022-12-18T11:14:01;7.20;95.50
47382;DHT22;33128;51.580;5.170;2022-12-18T11:16:28;7.20;94.60
47382;DHT22;33128;51.580;5.170;2022-12-18T11:18:54;7.10;95.90
47382;DHT22;33128;51.580;5.170;2022-12-18T11:21:20;7.20;95.60
47382;DHT22;33128;51.580;5.170;2022-12-18T11:23:53;7.20;95.30
47382;DHT22;33128;51.580;5.170;2022-12-18T11:26:19;7.30;95.10
47382;DHT22;33128;51.580;5.170;2022-12-18T11:29:08;7.30;95.90
47382;DHT22;33128;51.580;5.170;2022-12-18T11:31:34;7.80;94.60
47382;DHT22;33128;51.580;5.170;2022-12-18T11:34:28;8.00;96.20
47382;DHT22;33128;51.580;5.170;2022-12-18T11:36:56;8.30;94.40
47382;DHT22;33128;51.580;5.170;2022-12-18T11:39:46;8.40;95.30
47382;DHT22;33128;51.580;5.170;2022-12-18T11:42:26;8.40;94.10
47382;DHT22;33128;51.580;5.170;2022-12-18T11:52:51;8.30;94.80
47382;DHT22;33128;51.580;5.170;2022-12-18T11:58:35;8.10;94.20
47382;DHT22;33128;51.580;5.170;2022-12-18T12:15:25;8.10;95.10
47382;DHT22;33128;51.580;5.170;2022-12-18T12:17:58;8.20;95.10
47382;DHT22;33128;51.580;5.170;2022-12-18T12:20:42;8.20;95.50
47382;DHT22;33128;51.580;5.170;2022-12-18T12:34:22;8.30;95.50
47382;DHT22;33128;51.580;5.170;2022-12-18T12:39:40;8.30;95.60
47382;DHT22;33128;51.580;5.170;2022-12-18T12:42:17;8.30;95.50
47382;DHT22;33128;51.580;5.170;2022-12-18T12:45:05;8.40;95.30
47382;DHT22;33128;51.580;5.170;2022-12-18T12:47:38;8.40;95.50
47382;DHT22;33128;51.580;5.170;2022-12-18T12:50:18;8.40;95.50
47382;DHT22;33128;51.580;5.170;2022-12-18T12:52:52;8.40;95.30
47382;DHT22;33128;51.580;5.170;2022-12-18T12:55:22;8.40;95.40
47382;DHT22;33128;51.580;5.170;2022-12-18T12:57:54;8.50;95.60
47382;DHT22;33128;51.580;5.170;2022-12-18T13:00:21;8.50;95.60
47382;DHT22;33128;51.580;5.170;2022-12-18T13:05:21;8.50;95.70
47382;DHT22;33128;51.580;5.170;2022-12-18T13:08:03;8.50;95.70
47382;DHT22;33128;51.580;5.170;2022-12-18T13:10:41;8.50;95.20
47382;DHT22;33128;51.580;5.170;2022-12-18T13:13:12;8.50;95.50
47382;DHT22;33128;51.580;5.170;2022-12-18T13:15:43;8.60;95.50
47382;DHT22;33128;51.580;5.170;2022-12-18T13:18:11;8.60;95.40
47382;DHT22;33128;51.580;5.170;2022-12-18T13:20:47;8.60;95.70
47382;DHT22;33128;51.580;5.170;2022-12-18T13:23:32;8.60;95.40
47382;DHT22;33128;51.580;5.170;2022-12-18T13:28:51;8.60;95.70
47382;DHT22;33128;51.580;5.170;2022-12-18T13:36:45;8.60;95.20
47382;DHT22;33128;51.580;5.170;2022-12-18T13:41:53;8.70;95.50
47382;DHT22;33128;51.580;5.170;2022-12-18T13:44:31;8.70;95.90
47382;DHT22;33128;51.580;5.170;2022-12-18T13:46:58;8.70;95.70
47382;DHT22;33128;51.580;5.170;2022-12-18T13:49:38;8.70;95.80
47382;DHT22;33128;51.580;5.170;2022-12-18T13:52:27;8.70;95.30
47382;DHT22;33128;51.580;5.170;2022-12-18T13:54:57;8.70;95.30
47382;DHT22;33128;51.580;5.170;2022-12-18T13:57:34;8.80;95.80
47382;DHT22;33128;51.580;5.170;2022-12-18T14:02:48;8.80;95.30
47382;DHT22;33128;51.580;5.170;2022-12-18T14:05:36;8.90;95.80
47382;DHT22;33128;51.580;5.170;2022-12-18T14:08:10;8.90;95.40
47382;DHT22;33128;51.580;5.170;2022-12-18T14:10:44;8.90;95.60
47382;DHT22;33128;51.580;5.170;2022-12-18T14:13:24;8.90;95.80
47382;DHT22;33128;51.580;5.170;2022-12-18T14:15:52;8.90;96.10
47382;DHT22;33128;51.580;5.170;2022-12-18T14:19:04;8.90;95.80
47382;DHT22;33128;51.580;5.170;2022-12-18T14:21:22;8.90;95.70
47382;DHT22;33128;51.580;5.170;2022-12-18T14:23:48;9.00;95.60
47382;DHT22;33128;51.580;5.170;2022-12-18T14:26:29;9.00;95.60
47382;DHT22;33128;51.580;5.170;2022-12-18T14:28:57;9.00;95.40
47382;DHT22;33128;51.580;5.170;2022-12-18T14:31:26;9.00;95.80
47382;DHT22;33128;51.580;5.170;2022-12-18T14:33:53;9.00;95.60
47382;DHT22;33128;51.580;5.170;2022-12-18T14:36:27;9.00;95.80
47382;DHT22;33128;51.580;5.170;2022-12-18T14:38:56;9.10;95.70
47382;DHT22;33128;51.580;5.170;2022-12-18T14:41:22;9.10;95.60
47382;DHT22;33128;51.580;5.170;2022-12-18T14:43:51;9.10;96.00
47382;DHT22;33128;51.580;5.170;2022-12-18T14:46:32;9.10;95.90
47382;DHT22;33128;51.580;5.170;2022-12-18T14:49:44;9.10;95.30
47382;DHT22;33128;51.580;5.170;2022-12-18T14:51:55;9.10;95.70
47382;DHT22;33128;51.580;5.170;2022-12-18T14:54:23;9.10;95.70
47382;DHT22;33128;51.580;5.170;2022-12-18T14:56:51;9.20;95.90
47382;DHT22;33128;51.580;5.170;2022-12-18T14:59:22;9.20;95.70
47382;DHT22;33128;51.580;5.170;2022-12-18T15:04:37;9.20;95.20
47382;DHT22;33128;51.580;5.170;2022-12-18T15:09:38;9.40;96.00
47382;DHT22;33128;51.580;5.170;2022-12-18T15:12:15;9.50;95.90
47382;DHT22;33128;51.580;5.170;2022-12-18T15:14:45;9.40;95.90
47382;DHT22;33128;51.580;5.170;2022-12-18T15:17:21;9.40;95.50
47382;DHT22;33128;51.580;5.170;2022-12-18T15:19:52;9.40;95.40
47382;DHT22;33128;51.580;5.170;2022-12-18T15:22:30;9.50;96.20
47382;DHT22;33128;51.580;5.170;2022-12-18T15:24:58;9.60;95.50
47382;DHT22;33128;51.580;5.170;2022-12-18T15:27:26;9.60;95.80
47382;DHT22;33128;51.580;5.170;2022-12-18T15:30:16;9.50;95.50
47382;DHT22;33128;51.580;5.170;2022-12-18T15:32:43;9.40;94.80
47382;DHT22;33128;51.580;5.170;2022-12-18T15:37:45;9.50;95.60
47382;DHT22;33128;51.580;5.170;2022-12-18T15:40:16;9.60;96.00
47382;DHT22;33128;51.580;5.170;2022-12-18T15:42:42;9.70;95.60
47382;DHT22;33128;51.580;5.170;2022-12-18T15:45:27;9.60;95.80
47382;DHT22;33128;51.580;5.170;2022-12-18T15:47:56;9.60;95.50
47382;DHT22;33128;51.580;5.170;2022-12-18T15:50:24;9.60;95.90
47382;DHT22;33128;51.580;5.170;2022-12-18T15:52:52;9.80;96.20
47382;DHT22;33128;51.580;5.170;2022-12-18T15:55:23;9.90;95.80
47382;DHT22;33128;51.580;5.170;2022-12-18T15:58:09;10.00;95.50
47382;DHT22;33128;51.580;5.170;2022-12-18T16:00:39;10.20;95.70
47382;DHT22;33128;51.580;5.170;2022-12-18T16:03:05;10.30;95.70
47382;DHT22;33128;51.580;5.170;2022-12-18T16:05:31;10.30;95.30
47382;DHT22;33128;51.580;5.170;2022-12-18T16:07:57;10.10;95.30
47382;DHT22;33128;51.580;5.170;2022-12-18T16:10:24;10.00;95.30
47382;DHT22;33128;51.580;5.170;2022-12-18T16:12:50;9.90;95.50
47382;DHT22;33128;51.580;5.170;2022-12-18T16:15:16;9.90;95.50
47382;DHT22;33128;51.580;5.170;2022-12-18T16:17:43;9.90;95.40
47382;DHT22;33128;51.580;5.170;2022-12-18T16:20:16;9.80;95.30
47382;DHT22;33128;51.580;5.170;2022-12-18T16:22:43;9.80;95.40
47382;DHT22;33128;51.580;5.170;2022-12-18T16:27:44;9.80;95.40
47382;DHT22;33128;51.580;5.170;2022-12-18T16:30:16;9.80;95.70
47382;DHT22;33128;51.580;5.170;2022-12-18T16:32:42;9.80;95.40
47382;DHT22;33128;51.580;5.170;2022-12-18T16:35:13;9.80;95.70
47382;DHT22;33128;51.580;5.170;2022-12-18T16:37:40;9.80;95.60
47382;DHT22;33128;51.580;5.170;2022-12-18T16:40:07;9.80;95.70
47382;DHT22;33128;51.580;5.170;2022-12-18T16:42:36;9.70;95.70
47382;DHT22;33128;51.580;5.170;2022-12-18T16:45:03;9.80;95.80
47382;DHT22;33128;51.580;5.170;2022-12-18T16:47:31;9.80;95.70
47382;DHT22;33128;51.580;5.170;2022-12-18T16:49:57;9.80;95.80
47382;DHT22;33128;51.580;5.170;2022-12-18T16:52:23;9.70;96.00
47382;DHT22;33128;51.580;5.170;2022-12-18T16:54:48;9.80;96.00
47382;DHT22;33128;51.580;5.170;2022-12-18T16:57:18;9.80;95.90
47382;DHT22;33128;51.580;5.170;2022-12-18T16:59:47;9.70;95.90
47382;DHT22;33128;51.580;5.170;2022-12-18T17:02:16;9.80;96.10
47382;DHT22;33128;51.580;5.170;2022-12-18T17:04:42;9.70;96.10
47382;DHT22;33128;51.580;5.170;2022-12-18T17:07:08;9.70;95.90
47382;DHT22;33128;51.580;5.170;2022-12-18T17:09:35;9.70;96.00
47382;DHT22;33128;51.580;5.170;2022-12-18T17:12:01;9.70;96.20
47382;DHT22;33128;51.580;5.170;2022-12-18T17:14:26;9.80;96.40
47382;DHT22;33128;51.580;5.170;2022-12-18T17:16:53;9.80;96.10
47382;DHT22;33128;51.580;5.170;2022-12-18T17:19:22;9.80;96.20
47382;DHT22;33128;51.580;5.170;2022-12-18T17:21:49;9.70;96.20
47382;DHT22;33128;51.580;5.170;2022-12-18T17:24:15;9.70;96.20
47382;DHT22;33128;51.580;5.170;2022-12-18T17:26:40;9.80;96.30
47382;DHT22;33128;51.580;5.170;2022-12-18T17:29:07;9.80;96.20
47382;DHT22;33128;51.580;5.170;2022-12-18T17:31:33;9.70;96.40
47382;DHT22;33128;51.580;5.170;2022-12-18T17:34:00;9.80;96.40
47382;DHT22;33128;51.580;5.170;2022-12-18T17:36:26;9.80;96.30
47382;DHT22;33128;51.580;5.170;2022-12-18T17:38:58;9.80;96.40
47382;DHT22;33128;51.580;5.170;2022-12-18T17:41:25;9.80;96.30
47382;DHT22;33128;51.580;5.170;2022-12-18T17:43:53;9.80;96.60
47382;DHT22;33128;51.580;5.170;2022-12-18T17:46:19;9.80;96.40
47382;DHT22;33128;51.580;5.170;2022-12-18T17:48:45;9.80;96.50
47382;DHT22;33128;51.580;5.170;2022-12-18T17:51:11;9.80;96.40
47382;DHT22;33128;51.580;5.170;2022-12-18T17:53:37;9.80;96.50
47382;DHT22;33128;51.580;5.170;2022-12-18T17:56:04;9.80;96.70